createdAt,value
2022-09-17T00:01:05.063Z,90.77
2022-09-17T00:03:34.143Z,90.64
2022-09-17T00:06:00.922Z,90.46
2022-09-17T00:08:27.730Z,90.45
2022-09-17T00:10:54.041Z,90.71
2022-09-17T00:13:20.387Z,90.88
2022-09-17T00:15:47.505Z,91.34
2022-09-17T00:18:15.110Z,91.84
2022-09-17T00:20:43.465Z,91.79
2022-09-17T00:23:09.844Z,91.45
2022-09-17T00:25:44.211Z,91.07
2022-09-17T00:28:12.107Z,90.82
2022-09-17T00:30:45.570Z,90.67
2022-09-17T00:33:14.329Z,90.81
2022-09-17T00:35:40.737Z,91.11
2022-09-17T00:38:07.039Z,91.02
2022-09-17T00:40:34.134Z,91.18
2022-09-17T00:43:00.635Z,91.17
2022-09-17T00:45:27.894Z,91.23
2022-09-17T00:47:58.894Z,91.28
2022-09-17T00:50:27.906Z,91.22
2022-09-17T00:52:58.979Z,91.77
2022-09-17T00:55:48.669Z,91.74
2022-09-17T00:58:18.805Z,91.73
2022-09-17T01:00:46.665Z,91.78
2022-09-17T01:03:13.923Z,91.56
2022-09-17T01:05:56.082Z,91.85
2022-09-17T01:08:42.151Z,92.07
2022-09-17T01:11:25.392Z,91.57
2022-09-17T01:14:24.380Z,91.27
2022-09-17T01:17:26.094Z,91.41
2022-09-17T01:20:13.707Z,91.51
2022-09-17T01:22:58.370Z,91.55
2022-09-17T01:25:34.563Z,91.85
2022-09-17T01:28:37.970Z,91.79
2022-09-17T01:31:16.349Z,92.17
2022-09-17T01:34:01.452Z,92.04
2022-09-17T01:36:59.887Z,91.78
2022-09-17T01:39:48.396Z,92.28
2022-09-17T01:42:24.355Z,92.17
2022-09-17T01:44:59.818Z,92.61
2022-09-17T01:47:55.514Z,92.56
2022-09-17T01:50:26.731Z,92.39
2022-09-17T01:52:55.510Z,92.14
2022-09-17T01:55:26.648Z,91.34
2022-09-17T01:57:56.967Z,90.46
2022-09-17T02:00:23.612Z,89.89
2022-09-17T02:03:02.258Z,89.32
2022-09-17T02:05:37.496Z,88.66
2022-09-17T02:08:15.803Z,88.14
2022-09-17T02:10:50.658Z,88.05
2022-09-17T02:13:21.930Z,87.82
2022-09-17T02:16:01.837Z,87.22
2022-09-17T02:18:40.174Z,87.39
2022-09-17T02:21:23.068Z,87.42
2022-09-17T02:24:10.994Z,87.76
2022-09-17T02:26:44.639Z,87.81
2022-09-17T02:29:23.122Z,87.70
2022-09-17T02:31:49.500Z,87.89
2022-09-17T02:34:15.887Z,87.92
2022-09-17T02:36:42.219Z,88.39
2022-09-17T02:39:09.216Z,88.08
2022-09-17T02:41:49.827Z,88.83
2022-09-17T02:44:27.855Z,89.24
2022-09-17T02:47:35.943Z,89.86
2022-09-17T02:50:25.847Z,89.85
2022-09-17T02:53:22.952Z,90.24
2022-09-17T02:55:58.276Z,90.25
2022-09-17T02:58:31.314Z,90.39
2022-09-17T03:01:04.689Z,90.54
2022-09-17T03:03:39.299Z,90.35
2022-09-17T03:06:05.716Z,90.78
2022-09-17T03:08:39.129Z,91.28
2022-09-17T03:11:08.944Z,90.89
2022-09-17T03:13:36.163Z,91.16
2022-09-17T03:16:04.387Z,91.46
2022-09-17T03:18:31.242Z,91.56
2022-09-17T03:20:57.658Z,91.08
2022-09-17T03:23:24.142Z,91.19
2022-09-17T03:25:50.459Z,91.54
2022-09-17T03:28:17.054Z,91.86
2022-09-17T03:30:44.357Z,91.60
2022-09-17T03:33:10.844Z,91.65
2022-09-17T03:35:37.417Z,91.56
2022-09-17T03:38:04.061Z,91.60
2022-09-17T03:40:30.467Z,91.43
2022-09-17T03:42:56.840Z,91.40
2022-09-17T03:45:23.133Z,91.55
2022-09-17T03:47:49.767Z,91.66
2022-09-17T03:50:16.251Z,91.72
2022-09-17T03:52:45.423Z,91.87
2022-09-17T03:55:11.845Z,91.92
2022-09-17T03:57:38.172Z,92.37
2022-09-17T04:00:05.278Z,92.56
2022-09-17T04:02:32.138Z,92.71
2022-09-17T04:04:58.563Z,92.84
2022-09-17T04:07:24.900Z,92.76
2022-09-17T04:09:51.195Z,92.83
2022-09-17T04:12:17.526Z,92.76
2022-09-17T04:14:43.892Z,92.86
2022-09-17T04:17:10.262Z,92.68
2022-09-17T04:19:36.658Z,92.78
2022-09-17T04:22:02.961Z,92.40
2022-09-17T04:24:29.278Z,91.84
2022-09-17T04:26:55.565Z,91.78
2022-09-17T04:29:21.879Z,90.83
2022-09-17T04:31:48.187Z,91.07
2022-09-17T04:34:14.500Z,90.60
2022-09-17T04:36:40.817Z,90.32
2022-09-17T04:39:07.107Z,90.36
2022-09-17T04:41:33.444Z,90.12
2022-09-17T04:43:59.742Z,90.05
2022-09-17T04:46:26.094Z,90.12
2022-09-17T04:48:52.452Z,90.87
2022-09-17T04:51:18.781Z,91.14
2022-09-17T04:53:45.582Z,91.63
2022-09-17T04:56:11.877Z,91.38
2022-09-17T04:58:38.274Z,91.66
2022-09-17T05:01:04.691Z,92.08
2022-09-17T05:03:31.084Z,92.58
2022-09-17T05:05:57.391Z,92.35
2022-09-17T05:08:23.989Z,92.15
2022-09-17T05:10:51.399Z,92.25
2022-09-17T05:13:18.449Z,92.99
2022-09-17T05:15:45.086Z,93.11
2022-09-17T05:18:11.436Z,93.09
2022-09-17T05:20:37.739Z,93.08
2022-09-17T05:23:04.115Z,93.80
2022-09-17T05:25:30.877Z,93.21
2022-09-17T05:27:57.204Z,93.25
2022-09-17T05:30:23.532Z,92.93
2022-09-17T05:32:58.642Z,92.63
2022-09-17T05:35:24.941Z,93.16
2022-09-17T05:37:51.227Z,92.37
2022-09-17T05:40:17.665Z,92.01
2022-09-17T05:42:44.041Z,91.81
2022-09-17T05:45:10.754Z,91.83
2022-09-17T05:47:37.050Z,91.56
2022-09-17T05:50:03.558Z,91.20
2022-09-17T05:52:30.207Z,91.09
2022-09-17T05:54:56.520Z,90.76
2022-09-17T05:57:23.219Z,89.71
2022-09-17T05:59:49.522Z,89.02
2022-09-17T06:02:15.959Z,88.79
2022-09-17T06:04:42.350Z,88.27
2022-09-17T06:07:09.178Z,88.88
2022-09-17T06:09:37.514Z,88.91
2022-09-17T06:12:04.838Z,88.81
2022-09-17T06:14:31.192Z,88.93
2022-09-17T06:16:57.555Z,89.41
2022-09-17T06:19:23.967Z,89.36
2022-09-17T06:21:50.408Z,89.25
2022-09-17T06:24:16.867Z,89.41
2022-09-17T06:26:43.213Z,89.63
2022-09-17T06:29:09.869Z,89.63
2022-09-17T06:31:36.225Z,89.20
2022-09-17T06:34:02.624Z,88.95
2022-09-17T06:36:28.919Z,89.07
2022-09-17T06:38:55.220Z,88.93
2022-09-17T06:41:21.543Z,88.81
2022-09-17T06:43:47.854Z,88.54
2022-09-17T06:46:14.424Z,88.07
2022-09-17T06:48:40.812Z,87.65
2022-09-17T06:51:10.359Z,86.82
2022-09-17T06:53:38.040Z,86.28
2022-09-17T06:56:06.856Z,85.40
2022-09-17T06:58:34.220Z,84.69
2022-09-17T07:01:01.792Z,84.04
2022-09-17T07:03:29.616Z,84.22
2022-09-17T07:05:56.193Z,83.84
2022-09-17T07:08:22.678Z,83.67
2022-09-17T07:10:49.215Z,83.65
2022-09-17T07:13:15.763Z,82.38
2022-09-17T07:15:42.193Z,80.65
2022-09-17T07:18:10.774Z,81.29
2022-09-17T07:20:37.673Z,80.20
2022-09-17T07:23:03.991Z,81.25
2022-09-17T07:25:30.402Z,81.84
2022-09-17T07:27:56.730Z,81.13
2022-09-17T07:30:23.207Z,81.35
2022-09-17T07:32:49.547Z,80.31
2022-09-17T07:35:15.903Z,78.44
2022-09-17T07:37:42.223Z,78.74
2022-09-17T07:40:09.001Z,73.49
2022-09-17T07:42:35.562Z,76.65
2022-09-17T07:45:02.446Z,72.40
2022-09-17T07:47:28.882Z,69.18
2022-09-17T07:49:55.163Z,68.13
2022-09-17T07:52:21.553Z,62.67
2022-09-17T07:54:48.483Z,64.76
2022-09-17T07:57:14.839Z,63.89
2022-09-17T07:59:41.137Z,59.95
2022-09-17T08:02:13.424Z,66.34
2022-09-17T08:04:42.699Z,69.16
2022-09-17T08:07:11.863Z,72.75
2022-09-17T08:09:38.262Z,75.99
2022-09-17T08:12:04.898Z,75.57
2022-09-17T08:14:31.266Z,72.28
2022-09-17T08:16:57.641Z,66.41
2022-09-17T08:19:24.378Z,66.09
2022-09-17T08:21:50.963Z,66.77
2022-09-17T08:24:17.272Z,66.94
2022-09-17T08:26:43.573Z,65.21
2022-09-17T08:29:11.170Z,71.15
2022-09-17T08:31:37.527Z,74.63
2022-09-17T08:34:07.864Z,77.75
2022-09-17T08:36:34.174Z,79.67
2022-09-17T08:39:00.832Z,80.25
2022-09-17T08:41:48.803Z,75.04
2022-09-17T08:44:24.852Z,72.06
2022-09-17T08:46:59.416Z,70.91
2022-09-17T08:49:33.613Z,63.48
2022-09-17T08:52:31.334Z,62.47
2022-09-17T08:55:11.534Z,62.21
2022-09-17T08:58:06.565Z,64.73
2022-09-17T09:00:43.367Z,61.22
2022-09-17T09:03:44.167Z,61.97
2022-09-17T09:06:11.930Z,57.85
2022-09-17T09:08:56.644Z,58.20
2022-09-17T09:11:27.275Z,56.49
2022-09-17T09:14:16.838Z,56.42
2022-09-17T09:16:47.081Z,58.33
2022-09-17T09:19:30.832Z,62.95
2022-09-17T09:22:13.991Z,58.17
2022-09-17T09:25:11.967Z,57.83
2022-09-17T09:27:59.287Z,58.13
2022-09-17T09:30:30.864Z,55.17
2022-09-17T09:33:12.861Z,59.18
2022-09-17T09:35:42.409Z,60.29
2022-09-17T09:38:27.558Z,63.84
2022-09-17T09:41:00.546Z,62.67
2022-09-17T09:44:02.228Z,66.74
2022-09-17T09:46:36.344Z,70.20
2022-09-17T09:49:21.292Z,71.21
2022-09-17T09:52:12.592Z,76.15
2022-09-17T09:54:52.227Z,78.35
2022-09-17T09:57:31.242Z,79.97
2022-09-17T10:00:28.966Z,81.88
2022-09-17T10:03:03.359Z,82.45
2022-09-17T10:05:30.359Z,82.68
2022-09-17T10:07:57.260Z,84.49
2022-09-17T10:10:23.568Z,86.53
2022-09-17T10:13:05.628Z,86.48
2022-09-17T10:15:31.977Z,87.29
2022-09-17T10:18:18.977Z,85.25
2022-09-17T10:21:01.117Z,73.18
2022-09-17T10:23:36.143Z,74.78
2022-09-17T10:26:03.323Z,76.89
2022-09-17T10:28:51.619Z,73.89
2022-09-17T10:31:18.825Z,72.20
2022-09-17T10:33:56.015Z,76.66
2022-09-17T10:36:46.682Z,76.05
2022-09-17T10:39:34.003Z,78.20
2022-09-17T10:42:10.887Z,76.85
2022-09-17T10:44:38.405Z,72.75
2022-09-17T10:47:15.678Z,68.10
2022-09-17T10:49:46.875Z,64.33
2022-09-17T10:52:34.268Z,70.79
2022-09-17T10:55:10.048Z,66.68
2022-09-17T10:58:04.975Z,64.27
2022-09-17T11:00:44.120Z,59.31
2022-09-17T11:03:38.306Z,57.75
2022-09-17T11:06:20.057Z,59.85
2022-09-17T11:08:56.035Z,56.27
2022-09-17T11:11:53.475Z,56.39
2022-09-17T11:14:35.808Z,51.61
2022-09-17T11:17:18.455Z,47.80
2022-09-17T11:19:58.890Z,50.40
2022-09-17T11:22:43.923Z,50.50
2022-09-17T11:25:36.819Z,57.16
2022-09-17T11:28:18.264Z,60.09
2022-09-17T11:31:01.291Z,63.81
2022-09-17T11:33:52.059Z,57.01
2022-09-17T11:36:24.693Z,57.44
2022-09-17T11:38:56.588Z,52.13
2022-09-17T11:41:31.463Z,62.68
2022-09-17T11:44:10.884Z,64.21
2022-09-17T11:46:46.580Z,56.53
2022-09-17T11:49:34.223Z,59.40
2022-09-17T11:52:21.736Z,54.81
2022-09-17T11:54:56.877Z,55.88
2022-09-17T11:57:27.410Z,49.97
2022-09-17T12:00:03.398Z,51.09
2022-09-17T12:02:41.585Z,57.19
2022-09-17T12:05:18.210Z,59.50
2022-09-17T12:08:04.583Z,65.68
2022-09-17T12:10:49.473Z,72.08
2022-09-17T12:13:30.752Z,78.33
2022-09-17T12:16:32.897Z,71.16
2022-09-17T12:19:21.267Z,75.46
2022-09-17T12:22:03.887Z,72.90
2022-09-17T12:24:31.220Z,77.29
2022-09-17T12:27:07.706Z,76.50
2022-09-17T12:30:02.300Z,79.48
2022-09-17T12:32:59.051Z,70.39
2022-09-17T12:35:52.692Z,71.65
2022-09-17T12:38:27.891Z,76.67
2022-09-17T12:41:06.062Z,80.31
2022-09-17T12:43:59.561Z,82.78
2022-09-17T12:47:13.221Z,84.26
2022-09-17T12:50:01.241Z,82.23
2022-09-17T12:52:52.608Z,82.19
2022-09-17T12:55:34.089Z,81.75
2022-09-17T12:58:25.402Z,82.19
2022-09-17T13:01:02.759Z,83.78
2022-09-17T13:03:42.512Z,84.03
2022-09-17T13:06:39.768Z,83.09
2022-09-17T13:09:25.779Z,82.97
2022-09-17T13:12:13.761Z,83.31
2022-09-17T13:15:04.613Z,83.67
2022-09-17T13:18:12.903Z,84.25
2022-09-17T13:21:14.095Z,84.58
2022-09-17T13:23:43.810Z,82.82
2022-09-17T13:26:13.238Z,83.21
2022-09-17T13:28:48.203Z,82.47
2022-09-17T13:31:22.962Z,83.65
2022-09-17T13:33:59.237Z,83.82
2022-09-17T13:36:49.125Z,83.05
2022-09-17T13:39:40.538Z,83.14
2022-09-17T13:42:19.374Z,81.81
2022-09-17T13:44:50.712Z,82.18
2022-09-17T13:47:22.806Z,80.51
2022-09-17T13:49:57.629Z,80.52
2022-09-17T13:52:42.090Z,81.22
2022-09-17T13:55:29.385Z,81.73
2022-09-17T13:57:56.100Z,81.20
2022-09-17T14:01:11.506Z,80.06
2022-09-17T14:03:41.725Z,81.50
2022-09-17T14:06:08.466Z,80.87
2022-09-17T14:08:43.981Z,80.14
2022-09-17T14:11:22.557Z,79.78
2022-09-17T14:14:18.040Z,79.66
2022-09-17T14:16:45.968Z,79.52
2022-09-17T14:19:15.225Z,78.45
2022-09-17T14:22:02.039Z,79.44
2022-09-17T14:24:45.820Z,79.44
2022-09-17T14:27:13.711Z,78.81
2022-09-17T14:30:12.865Z,78.48
2022-09-17T14:32:42.181Z,78.70
2022-09-17T14:35:31.149Z,79.38
2022-09-17T14:38:05.284Z,77.04
2022-09-17T14:40:34.351Z,77.13
2022-09-17T14:43:03.161Z,78.37
2022-09-17T14:45:41.227Z,77.26
2022-09-17T14:48:27.507Z,78.77
2022-09-17T14:51:18.700Z,76.91
2022-09-17T14:53:46.305Z,76.44
2022-09-17T14:56:22.279Z,74.39
2022-09-17T14:58:54.635Z,75.01
2022-09-17T15:01:23.986Z,74.49
2022-09-17T15:03:51.084Z,74.47
2022-09-17T15:06:21.517Z,74.47
2022-09-17T15:08:47.872Z,75.10
2022-09-17T15:11:14.623Z,74.49
2022-09-17T15:13:47.141Z,72.63
2022-09-17T15:16:19.468Z,72.73
2022-09-17T15:18:57.812Z,73.11
2022-09-17T15:21:43.731Z,71.42
2022-09-17T15:24:31.414Z,72.11
2022-09-17T15:27:02.923Z,68.93
2022-09-17T15:29:31.137Z,69.57
2022-09-17T15:31:57.997Z,68.25
2022-09-17T15:34:24.302Z,67.67
2022-09-17T15:37:16.881Z,70.66
2022-09-17T15:39:50.778Z,72.20
2022-09-17T15:42:23.822Z,72.65
2022-09-17T15:44:50.486Z,74.44
2022-09-17T15:47:54.965Z,75.58
2022-09-17T15:50:26.085Z,74.75
2022-09-17T15:53:10.767Z,74.71
2022-09-17T15:55:40.975Z,73.42
2022-09-17T15:58:21.013Z,73.11
2022-09-17T16:00:47.720Z,74.75
2022-09-17T16:03:40.359Z,74.78
2022-09-17T16:06:29.488Z,73.23
2022-09-17T16:08:58.182Z,72.26
2022-09-17T16:11:32.135Z,73.49
2022-09-17T16:14:00.785Z,74.76
2022-09-17T16:16:31.220Z,74.02
2022-09-17T16:18:57.542Z,75.06
2022-09-17T16:21:24.980Z,74.33
2022-09-17T16:23:53.880Z,73.69
2022-09-17T16:26:28.751Z,72.93
2022-09-17T16:29:02.066Z,73.84
2022-09-17T16:31:28.884Z,73.82
2022-09-17T16:33:55.222Z,75.21
2022-09-17T16:36:21.667Z,74.55
2022-09-17T16:38:47.980Z,71.99
2022-09-17T16:41:14.319Z,71.12
2022-09-17T16:43:40.714Z,69.93
2022-09-17T16:46:10.460Z,69.73
2022-09-17T16:48:37.483Z,69.94
2022-09-17T16:51:08.442Z,69.06
2022-09-17T16:53:34.770Z,68.60
2022-09-17T16:56:01.477Z,68.57
2022-09-17T16:58:27.787Z,68.62
2022-09-17T17:00:54.134Z,68.89
2022-09-17T17:03:20.534Z,70.36
2022-09-17T17:05:46.834Z,70.89
2022-09-17T17:08:14.454Z,70.39
2022-09-17T17:10:40.822Z,72.17
2022-09-17T17:13:07.115Z,72.88
2022-09-17T17:15:33.659Z,72.98
2022-09-17T17:17:59.961Z,74.20
2022-09-17T17:20:26.355Z,74.01
2022-09-17T17:22:54.800Z,76.63
2022-09-17T17:25:21.129Z,76.91
2022-09-17T17:27:47.458Z,77.39
2022-09-17T17:30:17.109Z,77.73
2022-09-17T17:32:45.851Z,78.01
2022-09-17T17:35:12.180Z,78.13
2022-09-17T17:37:38.491Z,77.93
2022-09-17T17:40:07.108Z,77.74
2022-09-17T17:42:37.959Z,78.20
2022-09-17T17:45:05.948Z,78.04
2022-09-17T17:47:32.348Z,78.07
2022-09-17T17:49:58.761Z,78.96
2022-09-17T17:52:25.105Z,79.56
2022-09-17T17:54:51.455Z,79.12
2022-09-17T17:57:17.768Z,79.75
2022-09-17T17:59:44.098Z,80.25
2022-09-17T18:02:11.598Z,80.78
2022-09-17T18:04:38.005Z,80.92
2022-09-17T18:07:04.352Z,81.61
2022-09-17T18:09:30.718Z,81.93
2022-09-17T18:11:57.015Z,82.04
2022-09-17T18:14:23.366Z,81.75
2022-09-17T18:16:49.708Z,82.57
2022-09-17T18:19:16.006Z,83.43
2022-09-17T18:21:42.328Z,83.98
2022-09-17T18:24:08.638Z,84.79
2022-09-17T18:26:35.755Z,85.04
2022-09-17T18:29:07.047Z,86.05
2022-09-17T18:31:34.706Z,88.14
2022-09-17T18:34:03.133Z,87.26
2022-09-17T18:36:31.929Z,88.14
2022-09-17T18:39:32.885Z,89.41
2022-09-17T18:41:51.018Z,88.92
2022-09-17T18:44:18.970Z,89.37
2022-09-17T18:46:47.736Z,89.90
2022-09-17T18:49:14.210Z,90.79
2022-09-17T18:51:40.510Z,91.22
2022-09-17T18:54:07.254Z,91.60
2022-09-17T18:56:33.646Z,91.77
2022-09-17T18:59:03.302Z,92.22
2022-09-17T19:01:32.301Z,92.89
2022-09-17T19:03:59.354Z,93.10
2022-09-17T19:06:27.362Z,93.20
2022-09-17T19:08:58.526Z,93.44
2022-09-17T19:11:24.840Z,93.90
2022-09-17T19:13:51.281Z,93.86
2022-09-17T19:16:18.001Z,94.18
2022-09-17T19:18:44.730Z,94.30
2022-09-17T19:21:18.899Z,94.77
2022-09-17T19:23:47.060Z,94.99
2022-09-17T19:26:19.145Z,95.19
2022-09-17T19:28:46.800Z,95.37
2022-09-17T19:31:16.796Z,95.61
2022-09-17T19:33:44.370Z,95.90
2022-09-17T19:36:13.686Z,96.00
2022-09-17T19:38:40.068Z,96.37
2022-09-17T19:41:10.583Z,96.40
2022-09-17T19:43:37.053Z,96.56
2022-09-17T19:46:05.762Z,96.84
2022-09-17T19:48:33.050Z,96.95
2022-09-17T19:50:59.343Z,96.77
2022-09-17T19:53:25.711Z,97.46
2022-09-17T19:55:52.167Z,97.91
2022-09-17T19:58:18.496Z,97.97
2022-09-17T20:00:44.955Z,97.93
2022-09-17T20:03:11.832Z,97.91
2022-09-17T20:05:38.382Z,98.09
2022-09-17T20:08:05.042Z,98.16
2022-09-17T20:10:36.375Z,98.18
2022-09-17T20:13:02.869Z,98.13
2022-09-17T20:15:29.298Z,98.07
2022-09-17T20:17:55.659Z,98.04
2022-09-17T20:20:22.142Z,98.24
2022-09-17T20:22:51.082Z,97.95
2022-09-17T20:25:17.388Z,98.13
2022-09-17T20:27:43.693Z,97.89
2022-09-17T20:30:10.267Z,98.23
2022-09-17T20:32:36.571Z,98.30
2022-09-17T20:35:02.932Z,98.39
2022-09-17T20:38:18.557Z,98.40
2022-09-17T20:40:15.852Z,98.42
2022-09-17T20:42:42.211Z,98.21
2022-09-17T20:45:08.686Z,98.43
2022-09-17T20:47:35.043Z,98.17
2022-09-17T20:50:01.343Z,98.09
2022-09-17T20:52:27.647Z,97.63
2022-09-17T20:54:53.943Z,98.06
2022-09-17T20:57:20.233Z,97.73
2022-09-17T20:59:53.143Z,98.00
2022-09-17T21:02:21.933Z,97.91
2022-09-17T21:04:53.547Z,97.96
2022-09-17T21:07:20.365Z,97.89
2022-09-17T21:09:46.811Z,98.03
2022-09-17T21:12:13.138Z,97.90
2022-09-17T21:14:39.494Z,97.76
2022-09-17T21:17:05.856Z,97.77
2022-09-17T21:19:32.203Z,97.83
2022-09-17T21:21:58.655Z,97.98
2022-09-17T21:24:24.978Z,97.79
2022-09-17T21:26:53.159Z,97.54
2022-09-17T21:29:19.751Z,97.66
2022-09-17T21:31:46.129Z,97.53
2022-09-17T21:34:13.587Z,97.51
2022-09-17T21:36:41.273Z,97.23
2022-09-17T21:39:12.651Z,97.32
2022-09-17T21:41:42.588Z,97.48
2022-09-17T21:44:10.601Z,97.29
2022-09-17T21:46:37.595Z,97.38
2022-09-17T21:49:05.598Z,97.26
2022-09-17T21:51:36.379Z,97.44
2022-09-17T21:54:05.778Z,97.47
2022-09-17T21:56:32.615Z,97.01
2022-09-17T21:59:01.354Z,97.28
2022-09-17T22:01:31.564Z,97.00
2022-09-17T22:03:59.985Z,97.02
2022-09-17T22:06:29.127Z,97.16
2022-09-17T22:08:56.779Z,96.91
2022-09-17T22:11:31.806Z,97.08
2022-09-17T22:14:00.665Z,97.11
2022-09-17T22:16:30.576Z,97.39
2022-09-17T22:18:59.373Z,97.41
2022-09-17T22:21:27.948Z,97.24
2022-09-17T22:23:57.043Z,97.33
2022-09-17T22:26:25.044Z,97.44
2022-09-17T22:28:52.210Z,97.33
2022-09-17T22:31:19.357Z,97.70
2022-09-17T22:33:48.139Z,97.56
2022-09-17T22:36:20.214Z,97.54
2022-09-17T22:38:58.306Z,97.68
2022-09-17T22:41:27.227Z,97.87
2022-09-17T22:43:55.245Z,98.02
2022-09-17T22:46:24.665Z,98.00
2022-09-17T22:48:51.522Z,98.19
2022-09-17T22:51:18.460Z,98.43
2022-09-17T22:53:44.859Z,98.44
2022-09-17T22:56:14.115Z,98.62
2022-09-17T22:58:40.534Z,98.61
2022-09-17T23:01:16.089Z,98.76
2022-09-17T23:03:43.566Z,98.95
2022-09-17T23:06:21.542Z,99.07
2022-09-17T23:08:48.102Z,98.84
2022-09-17T23:11:20.730Z,98.96
2022-09-17T23:13:48.135Z,99.07
2022-09-17T23:16:15.455Z,99.20
2022-09-17T23:18:42.322Z,98.95
2022-09-17T23:21:14.257Z,99.19
2022-09-17T23:23:42.177Z,98.96
2022-09-17T23:26:12.318Z,98.96
2022-09-17T23:28:39.794Z,99.08
2022-09-17T23:31:21.528Z,99.07
2022-09-17T23:33:48.549Z,99.01
2022-09-17T23:36:17.187Z,99.23
2022-09-17T23:38:44.778Z,99.06
2022-09-17T23:41:17.060Z,99.50
2022-09-17T23:43:45.675Z,99.54
2022-09-17T23:46:12.449Z,99.48
2022-09-17T23:48:39.055Z,99.78
2022-09-17T23:51:06.323Z,99.64
2022-09-17T23:53:34.419Z,99.84
2022-09-17T23:56:01.385Z,100.00
2022-09-17T23:58:32.791Z,100.00
